sensor_id;sensor_type;location;lat;lon;timestamp;P1;durP1;ratioP1;P2;durP2;ratioP2
68256;SDS011;55069;51.568;4.656;2022-11-30T00:00:37;35.13;;;18.85;;
68256;SDS011;55069;51.568;4.656;2022-11-30T00:03:03;35.47;;;20.37;;
68256;SDS011;55069;51.568;4.656;2022-11-30T00:05:29;35.22;;;19.58;;
68256;SDS011;55069;51.568;4.656;2022-11-30T00:07:54;37.07;;;20.57;;
68256;SDS011;55069;51.568;4.656;2022-11-30T00:10:20;37.33;;;19.83;;
68256;SDS011;55069;51.568;4.656;2022-11-30T00:12:47;36.75;;;19.50;;
68256;SDS011;55069;51.568;4.656;2022-11-30T00:15:13;33.55;;;18.75;;
68256;SDS011;55069;51.568;4.656;2022-11-30T00:17:41;35.58;;;18.65;;
68256;SDS011;55069;51.568;4.656;2022-11-30T00:20:07;38.07;;;19.67;;
68256;SDS011;55069;51.568;4.656;2022-11-30T00:22:33;37.70;;;20.52;;
68256;SDS011;55069;51.568;4.656;2022-11-30T00:24:58;39.10;;;20.07;;
68256;SDS011;55069;51.568;4.656;2022-11-30T00:27:27;34.03;;;19.30;;
68256;SDS011;55069;51.568;4.656;2022-11-30T00:29:53;41.58;;;20.48;;
68256;SDS011;55069;51.568;4.656;2022-11-30T00:32:18;33.80;;;18.43;;
68256;SDS011;55069;51.568;4.656;2022-11-30T00:34:44;36.33;;;19.17;;
68256;SDS011;55069;51.568;4.656;2022-11-30T00:37:10;35.00;;;19.55;;
68256;SDS011;55069;51.568;4.656;2022-11-30T00:39:35;38.97;;;19.20;;
68256;SDS011;55069;51.568;4.656;2022-11-30T00:42:00;37.97;;;19.20;;
68256;SDS011;55069;51.568;4.656;2022-11-30T00:44:26;43.67;;;20.13;;
68256;SDS011;55069;51.568;4.656;2022-11-30T00:46:51;37.83;;;19.05;;
68256;SDS011;55069;51.568;4.656;2022-11-30T00:49:17;40.27;;;20.20;;
68256;SDS011;55069;51.568;4.656;2022-11-30T00:51:42;41.30;;;20.73;;
68256;SDS011;55069;51.568;4.656;2022-11-30T00:54:08;39.40;;;20.53;;
68256;SDS011;55069;51.568;4.656;2022-11-30T00:56:33;40.33;;;20.93;;
68256;SDS011;55069;51.568;4.656;2022-11-30T00:58:59;38.90;;;20.13;;
68256;SDS011;55069;51.568;4.656;2022-11-30T01:01:24;34.77;;;19.03;;
68256;SDS011;55069;51.568;4.656;2022-11-30T01:03:49;39.80;;;20.67;;
68256;SDS011;55069;51.568;4.656;2022-11-30T01:06:15;38.00;;;18.20;;
68256;SDS011;55069;51.568;4.656;2022-11-30T01:08:41;36.05;;;19.40;;
68256;SDS011;55069;51.568;4.656;2022-11-30T01:11:16;37.23;;;19.83;;
68256;SDS011;55069;51.568;4.656;2022-11-30T01:13:45;40.95;;;20.60;;
68256;SDS011;55069;51.568;4.656;2022-11-30T01:16:11;39.27;;;20.07;;
68256;SDS011;55069;51.568;4.656;2022-11-30T01:18:39;37.10;;;20.65;;
68256;SDS011;55069;51.568;4.656;2022-11-30T01:21:06;38.93;;;20.30;;
68256;SDS011;55069;51.568;4.656;2022-11-30T01:23:34;35.28;;;18.92;;
68256;SDS011;55069;51.568;4.656;2022-11-30T01:26:00;38.95;;;20.83;;
68256;SDS011;55069;51.568;4.656;2022-11-30T01:28:25;38.90;;;21.67;;
68256;SDS011;55069;51.568;4.656;2022-11-30T01:30:55;36.85;;;19.90;;
68256;SDS011;55069;51.568;4.656;2022-11-30T01:33:22;35.70;;;19.03;;
68256;SDS011;55069;51.568;4.656;2022-11-30T01:35:47;35.67;;;19.25;;
68256;SDS011;55069;51.568;4.656;2022-11-30T01:38:12;32.50;;;17.80;;
68256;SDS011;55069;51.568;4.656;2022-11-30T01:40:38;41.73;;;20.20;;
68256;SDS011;55069;51.568;4.656;2022-11-30T01:43:08;35.20;;;19.23;;
68256;SDS011;55069;51.568;4.656;2022-11-30T01:45:35;43.25;;;20.40;;
68256;SDS011;55069;51.568;4.656;2022-11-30T01:48:01;35.57;;;20.53;;
68256;SDS011;55069;51.568;4.656;2022-11-30T01:50:27;40.83;;;19.83;;
68256;SDS011;55069;51.568;4.656;2022-11-30T01:52:56;39.60;;;19.38;;
68256;SDS011;55069;51.568;4.656;2022-11-30T01:55:34;34.97;;;19.00;;
68256;SDS011;55069;51.568;4.656;2022-11-30T01:58:11;35.33;;;19.73;;
68256;SDS011;55069;51.568;4.656;2022-11-30T02:00:40;36.80;;;19.58;;
68256;SDS011;55069;51.568;4.656;2022-11-30T02:03:18;37.73;;;18.90;;
68256;SDS011;55069;51.568;4.656;2022-11-30T02:05:50;39.30;;;20.85;;
68256;SDS011;55069;51.568;4.656;2022-11-30T02:08:16;36.78;;;20.38;;
68256;SDS011;55069;51.568;4.656;2022-11-30T02:10:43;37.23;;;20.37;;
68256;SDS011;55069;51.568;4.656;2022-11-30T02:16:44;48.55;;;22.40;;
68256;SDS011;55069;51.568;4.656;2022-11-30T02:18:55;42.72;;;20.88;;
68256;SDS011;55069;51.568;4.656;2022-11-30T02:24:06;41.00;;;20.27;;
68256;SDS011;55069;51.568;4.656;2022-11-30T02:26:50;36.88;;;19.92;;
68256;SDS011;55069;51.568;4.656;2022-11-30T02:29:29;41.72;;;21.48;;
68256;SDS011;55069;51.568;4.656;2022-11-30T02:32:02;38.13;;;19.83;;
68256;SDS011;55069;51.568;4.656;2022-11-30T02:34:33;37.78;;;20.08;;
68256;SDS011;55069;51.568;4.656;2022-11-30T02:37:01;48.37;;;21.27;;
68256;SDS011;55069;51.568;4.656;2022-11-30T02:39:27;37.13;;;19.88;;
68256;SDS011;55069;51.568;4.656;2022-11-30T02:41:53;43.35;;;21.58;;
68256;SDS011;55069;51.568;4.656;2022-11-30T02:44:18;60.33;;;21.75;;
68256;SDS011;55069;51.568;4.656;2022-11-30T02:46:55;65.73;;;22.17;;
68256;SDS011;55069;51.568;4.656;2022-11-30T02:49:29;33.58;;;19.33;;
68256;SDS011;55069;51.568;4.656;2022-11-30T02:51:56;36.65;;;19.40;;
68256;SDS011;55069;51.568;4.656;2022-11-30T02:54:23;40.80;;;20.60;;
68256;SDS011;55069;51.568;4.656;2022-11-30T02:56:48;59.05;;;21.25;;
68256;SDS011;55069;51.568;4.656;2022-11-30T02:59:14;35.67;;;20.00;;
68256;SDS011;55069;51.568;4.656;2022-11-30T03:01:39;35.30;;;19.73;;
68256;SDS011;55069;51.568;4.656;2022-11-30T03:04:06;70.30;;;21.88;;
68256;SDS011;55069;51.568;4.656;2022-11-30T03:06:32;45.80;;;19.92;;
68256;SDS011;55069;51.568;4.656;2022-11-30T03:08:57;48.13;;;19.73;;
68256;SDS011;55069;51.568;4.656;2022-11-30T03:11:23;50.87;;;19.67;;
68256;SDS011;55069;51.568;4.656;2022-11-30T03:13:49;43.40;;;19.33;;
68256;SDS011;55069;51.568;4.656;2022-11-30T03:16:15;47.73;;;19.63;;
68256;SDS011;55069;51.568;4.656;2022-11-30T03:18:40;35.55;;;20.20;;
68256;SDS011;55069;51.568;4.656;2022-11-30T03:21:06;51.10;;;19.73;;
68256;SDS011;55069;51.568;4.656;2022-11-30T03:23:33;44.17;;;20.13;;
68256;SDS011;55069;51.568;4.656;2022-11-30T03:26:00;55.15;;;19.73;;
68256;SDS011;55069;51.568;4.656;2022-11-30T03:28:26;75.85;;;20.67;;
68256;SDS011;55069;51.568;4.656;2022-11-30T03:30:51;38.58;;;18.90;;
68256;SDS011;55069;51.568;4.656;2022-11-30T03:33:17;37.53;;;18.13;;
68256;SDS011;55069;51.568;4.656;2022-11-30T03:35:43;41.43;;;19.73;;
68256;SDS011;55069;51.568;4.656;2022-11-30T03:38:09;35.80;;;17.95;;
68256;SDS011;55069;51.568;4.656;2022-11-30T03:40:37;31.77;;;17.87;;
68256;SDS011;55069;51.568;4.656;2022-11-30T03:43:03;50.78;;;19.08;;
68256;SDS011;55069;51.568;4.656;2022-11-30T03:45:28;42.23;;;17.97;;
68256;SDS011;55069;51.568;4.656;2022-11-30T03:47:54;75.93;;;18.30;;
68256;SDS011;55069;51.568;4.656;2022-11-30T03:50:19;33.27;;;17.23;;
68256;SDS011;55069;51.568;4.656;2022-11-30T03:52:45;51.90;;;18.67;;
68256;SDS011;55069;51.568;4.656;2022-11-30T03:55:11;128.80;;;18.27;;
68256;SDS011;55069;51.568;4.656;2022-11-30T03:57:36;45.97;;;16.03;;
68256;SDS011;55069;51.568;4.656;2022-11-30T04:00:03;59.23;;;18.50;;
68256;SDS011;55069;51.568;4.656;2022-11-30T04:02:37;121.43;;;17.63;;
68256;SDS011;55069;51.568;4.656;2022-11-30T04:05:02;41.10;;;17.20;;
68256;SDS011;55069;51.568;4.656;2022-11-30T04:07:28;53.13;;;17.15;;
68256;SDS011;55069;51.568;4.656;2022-11-30T04:09:53;51.83;;;16.77;;
68256;SDS011;55069;51.568;4.656;2022-11-30T04:12:19;45.37;;;16.53;;
68256;SDS011;55069;51.568;4.656;2022-11-30T04:14:44;37.03;;;17.80;;
68256;SDS011;55069;51.568;4.656;2022-11-30T04:17:10;58.25;;;17.38;;
68256;SDS011;55069;51.568;4.656;2022-11-30T04:19:35;72.53;;;18.30;;
68256;SDS011;55069;51.568;4.656;2022-11-30T04:22:00;75.33;;;18.67;;
68256;SDS011;55069;51.568;4.656;2022-11-30T04:24:26;64.03;;;17.00;;
68256;SDS011;55069;51.568;4.656;2022-11-30T04:26:51;70.73;;;17.57;;
68256;SDS011;55069;51.568;4.656;2022-11-30T04:29:17;60.75;;;17.45;;
68256;SDS011;55069;51.568;4.656;2022-11-30T04:31:42;85.03;;;17.63;;
68256;SDS011;55069;51.568;4.656;2022-11-30T04:34:08;36.10;;;17.20;;
68256;SDS011;55069;51.568;4.656;2022-11-30T04:36:33;51.20;;;17.83;;
68256;SDS011;55069;51.568;4.656;2022-11-30T04:38:59;45.63;;;17.50;;
68256;SDS011;55069;51.568;4.656;2022-11-30T04:41:24;34.33;;;16.70;;
68256;SDS011;55069;51.568;4.656;2022-11-30T04:43:50;92.37;;;18.17;;
68256;SDS011;55069;51.568;4.656;2022-11-30T04:46:15;34.42;;;17.77;;
68256;SDS011;55069;51.568;4.656;2022-11-30T04:48:41;42.13;;;17.03;;
68256;SDS011;55069;51.568;4.656;2022-11-30T04:51:07;64.23;;;17.87;;
68256;SDS011;55069;51.568;4.656;2022-11-30T04:53:33;34.55;;;16.52;;
68256;SDS011;55069;51.568;4.656;2022-11-30T04:56:06;73.78;;;18.73;;
68256;SDS011;55069;51.568;4.656;2022-11-30T04:58:33;57.13;;;18.27;;
68256;SDS011;55069;51.568;4.656;2022-11-30T05:00:58;47.47;;;18.38;;
68256;SDS011;55069;51.568;4.656;2022-11-30T05:03:24;38.47;;;17.17;;
68256;SDS011;55069;51.568;4.656;2022-11-30T05:05:49;61.60;;;17.80;;
68256;SDS011;55069;51.568;4.656;2022-11-30T05:08:15;40.17;;;16.60;;
68256;SDS011;55069;51.568;4.656;2022-11-30T05:10:40;41.73;;;16.60;;
68256;SDS011;55069;51.568;4.656;2022-11-30T05:13:06;63.43;;;18.00;;
68256;SDS011;55069;51.568;4.656;2022-11-30T05:15:31;61.30;;;17.08;;
68256;SDS011;55069;51.568;4.656;2022-11-30T05:17:58;48.83;;;18.13;;
68256;SDS011;55069;51.568;4.656;2022-11-30T05:20:24;59.45;;;17.80;;
68256;SDS011;55069;51.568;4.656;2022-11-30T05:22:50;38.58;;;16.67;;
68256;SDS011;55069;51.568;4.656;2022-11-30T05:25:15;37.75;;;17.27;;
68256;SDS011;55069;51.568;4.656;2022-11-30T05:27:41;74.10;;;17.33;;
68256;SDS011;55069;51.568;4.656;2022-11-30T05:30:06;47.90;;;16.63;;
68256;SDS011;55069;51.568;4.656;2022-11-30T05:32:32;92.00;;;17.55;;
68256;SDS011;55069;51.568;4.656;2022-11-30T05:34:58;75.10;;;17.00;;
68256;SDS011;55069;51.568;4.656;2022-11-30T05:37:23;69.63;;;16.63;;
68256;SDS011;55069;51.568;4.656;2022-11-30T05:39:49;76.75;;;16.02;;
68256;SDS011;55069;51.568;4.656;2022-11-30T05:42:14;52.00;;;15.90;;
68256;SDS011;55069;51.568;4.656;2022-11-30T05:44:40;49.27;;;16.73;;
68256;SDS011;55069;51.568;4.656;2022-11-30T05:47:05;60.47;;;16.63;;
68256;SDS011;55069;51.568;4.656;2022-11-30T05:49:31;42.83;;;16.70;;
68256;SDS011;55069;51.568;4.656;2022-11-30T05:51:56;50.67;;;17.40;;
68256;SDS011;55069;51.568;4.656;2022-11-30T05:54:22;71.87;;;17.63;;
68256;SDS011;55069;51.568;4.656;2022-11-30T05:56:47;132.80;;;17.77;;
68256;SDS011;55069;51.568;4.656;2022-11-30T05:59:13;87.35;;;17.67;;
68256;SDS011;55069;51.568;4.656;2022-11-30T06:01:38;105.15;;;17.63;;
68256;SDS011;55069;51.568;4.656;2022-11-30T06:04:04;60.03;;;17.13;;
68256;SDS011;55069;51.568;4.656;2022-11-30T06:06:30;75.28;;;18.48;;
68256;SDS011;55069;51.568;4.656;2022-11-30T06:08:56;117.40;;;17.43;;
68256;SDS011;55069;51.568;4.656;2022-11-30T06:11:21;66.43;;;16.58;;
68256;SDS011;55069;51.568;4.656;2022-11-30T06:13:47;75.28;;;16.08;;
68256;SDS011;55069;51.568;4.656;2022-11-30T06:16:12;79.83;;;17.33;;
68256;SDS011;55069;51.568;4.656;2022-11-30T06:18:38;97.17;;;18.03;;
68256;SDS011;55069;51.568;4.656;2022-11-30T06:21:04;115.57;;;18.00;;
68256;SDS011;55069;51.568;4.656;2022-11-30T06:23:32;147.52;;;18.88;;
68256;SDS011;55069;51.568;4.656;2022-11-30T06:25:57;152.57;;;18.40;;
68256;SDS011;55069;51.568;4.656;2022-11-30T06:28:26;133.38;;;20.35;;
68256;SDS011;55069;51.568;4.656;2022-11-30T06:30:52;108.17;;;19.63;;
68256;SDS011;55069;51.568;4.656;2022-11-30T06:33:20;117.10;;;18.97;;
68256;SDS011;55069;51.568;4.656;2022-11-30T06:35:47;111.93;;;18.63;;
68256;SDS011;55069;51.568;4.656;2022-11-30T06:38:12;110.47;;;18.37;;
68256;SDS011;55069;51.568;4.656;2022-11-30T06:40:38;104.67;;;18.43;;
68256;SDS011;55069;51.568;4.656;2022-11-30T06:43:03;86.50;;;18.25;;
68256;SDS011;55069;51.568;4.656;2022-11-30T06:45:29;99.38;;;19.23;;
68256;SDS011;55069;51.568;4.656;2022-11-30T06:47:56;87.32;;;19.10;;
68256;SDS011;55069;51.568;4.656;2022-11-30T06:50:22;47.28;;;17.17;;
68256;SDS011;55069;51.568;4.656;2022-11-30T06:52:48;113.30;;;18.60;;
68256;SDS011;55069;51.568;4.656;2022-11-30T06:55:13;62.25;;;17.88;;
68256;SDS011;55069;51.568;4.656;2022-11-30T06:57:39;167.67;;;19.50;;
68256;SDS011;55069;51.568;4.656;2022-11-30T07:00:04;144.20;;;18.17;;
68256;SDS011;55069;51.568;4.656;2022-11-30T07:02:31;103.85;;;17.45;;
68256;SDS011;55069;51.568;4.656;2022-11-30T07:04:56;135.43;;;19.17;;
68256;SDS011;55069;51.568;4.656;2022-11-30T07:07:21;68.93;;;17.03;;
68256;SDS011;55069;51.568;4.656;2022-11-30T07:09:48;59.67;;;18.33;;
68256;SDS011;55069;51.568;4.656;2022-11-30T07:12:14;102.97;;;17.40;;
68256;SDS011;55069;51.568;4.656;2022-11-30T07:14:40;59.05;;;17.73;;
68256;SDS011;55069;51.568;4.656;2022-11-30T07:17:05;72.93;;;20.23;;
68256;SDS011;55069;51.568;4.656;2022-11-30T07:19:31;41.67;;;16.50;;
68256;SDS011;55069;51.568;4.656;2022-11-30T07:22:00;53.55;;;17.95;;
68256;SDS011;55069;51.568;4.656;2022-11-30T07:24:25;31.42;;;15.60;;
68256;SDS011;55069;51.568;4.656;2022-11-30T07:27:09;46.47;;;17.30;;
68256;SDS011;55069;51.568;4.656;2022-11-30T07:29:35;40.83;;;15.82;;
68256;SDS011;55069;51.568;4.656;2022-11-30T07:32:00;32.47;;;15.77;;
68256;SDS011;55069;51.568;4.656;2022-11-30T07:34:26;47.67;;;17.20;;
68256;SDS011;55069;51.568;4.656;2022-11-30T07:36:52;33.80;;;17.20;;
68256;SDS011;55069;51.568;4.656;2022-11-30T07:39:17;28.33;;;15.77;;
68256;SDS011;55069;51.568;4.656;2022-11-30T07:41:43;45.57;;;17.40;;
68256;SDS011;55069;51.568;4.656;2022-11-30T07:44:09;27.95;;;16.48;;
68256;SDS011;55069;51.568;4.656;2022-11-30T07:46:36;36.10;;;16.42;;
68256;SDS011;55069;51.568;4.656;2022-11-30T07:49:03;26.70;;;15.53;;
68256;SDS011;55069;51.568;4.656;2022-11-30T07:51:30;36.28;;;16.13;;
68256;SDS011;55069;51.568;4.656;2022-11-30T07:53:56;49.45;;;17.20;;
68256;SDS011;55069;51.568;4.656;2022-11-30T07:56:22;27.73;;;15.88;;
68256;SDS011;55069;51.568;4.656;2022-11-30T07:58:48;33.43;;;17.47;;
68256;SDS011;55069;51.568;4.656;2022-11-30T08:01:17;33.22;;;17.02;;
68256;SDS011;55069;51.568;4.656;2022-11-30T08:03:45;33.35;;;17.17;;
68256;SDS011;55069;51.568;4.656;2022-11-30T08:06:18;39.97;;;18.23;;
68256;SDS011;55069;51.568;4.656;2022-11-30T08:08:45;27.85;;;16.90;;
68256;SDS011;55069;51.568;4.656;2022-11-30T08:11:13;33.90;;;17.77;;
68256;SDS011;55069;51.568;4.656;2022-11-30T08:13:41;33.25;;;18.23;;
68256;SDS011;55069;51.568;4.656;2022-11-30T08:16:08;33.30;;;17.23;;
68256;SDS011;55069;51.568;4.656;2022-11-30T08:18:36;30.48;;;17.63;;
68256;SDS011;55069;51.568;4.656;2022-11-30T08:21:03;28.45;;;17.05;;
68256;SDS011;55069;51.568;4.656;2022-11-30T08:23:34;33.20;;;17.97;;
68256;SDS011;55069;51.568;4.656;2022-11-30T08:26:10;32.45;;;18.60;;
68256;SDS011;55069;51.568;4.656;2022-11-30T08:28:41;27.55;;;16.95;;
68256;SDS011;55069;51.568;4.656;2022-11-30T08:31:09;34.75;;;17.73;;
68256;SDS011;55069;51.568;4.656;2022-11-30T08:33:37;29.55;;;18.27;;
68256;SDS011;55069;51.568;4.656;2022-11-30T08:38:57;25.13;;;14.90;;
68256;SDS011;55069;51.568;4.656;2022-11-30T08:41:24;25.75;;;16.30;;
68256;SDS011;55069;51.568;4.656;2022-11-30T08:43:50;25.17;;;15.93;;
68256;SDS011;55069;51.568;4.656;2022-11-30T08:46:17;31.02;;;16.00;;
68256;SDS011;55069;51.568;4.656;2022-11-30T08:48:44;24.45;;;15.35;;
68256;SDS011;55069;51.568;4.656;2022-11-30T08:51:10;25.33;;;15.43;;
68256;SDS011;55069;51.568;4.656;2022-11-30T08:53:37;25.75;;;15.77;;
68256;SDS011;55069;51.568;4.656;2022-11-30T08:56:04;25.02;;;14.93;;
68256;SDS011;55069;51.568;4.656;2022-11-30T08:58:33;23.58;;;14.85;;
68256;SDS011;55069;51.568;4.656;2022-11-30T09:01:10;25.57;;;15.77;;
68256;SDS011;55069;51.568;4.656;2022-11-30T09:03:38;31.58;;;16.77;;
68256;SDS011;55069;51.568;4.656;2022-11-30T09:08:37;23.60;;;14.85;;
68256;SDS011;55069;51.568;4.656;2022-11-30T09:11:25;32.75;;;16.80;;
68256;SDS011;55069;51.568;4.656;2022-11-30T09:13:57;24.10;;;14.10;;
68256;SDS011;55069;51.568;4.656;2022-11-30T09:16:24;25.73;;;14.75;;
68256;SDS011;55069;51.568;4.656;2022-11-30T09:18:51;19.95;;;12.80;;
68256;SDS011;55069;51.568;4.656;2022-11-30T09:21:18;26.05;;;12.70;;
68256;SDS011;55069;51.568;4.656;2022-11-30T09:23:46;18.33;;;13.17;;
68256;SDS011;55069;51.568;4.656;2022-11-30T09:26:13;22.08;;;14.40;;
68256;SDS011;55069;51.568;4.656;2022-11-30T09:28:41;21.05;;;13.75;;
68256;SDS011;55069;51.568;4.656;2022-11-30T09:31:11;23.60;;;14.73;;
68256;SDS011;55069;51.568;4.656;2022-11-30T09:33:39;20.23;;;14.23;;
68256;SDS011;55069;51.568;4.656;2022-11-30T09:36:06;22.43;;;13.83;;
68256;SDS011;55069;51.568;4.656;2022-11-30T09:38:33;20.55;;;13.77;;
68256;SDS011;55069;51.568;4.656;2022-11-30T09:40:59;22.20;;;13.88;;
68256;SDS011;55069;51.568;4.656;2022-11-30T09:46:12;20.15;;;13.43;;
68256;SDS011;55069;51.568;4.656;2022-11-30T09:48:55;20.30;;;13.82;;
68256;SDS011;55069;51.568;4.656;2022-11-30T09:51:35;24.35;;;14.95;;
68256;SDS011;55069;51.568;4.656;2022-11-30T09:54:11;19.90;;;13.73;;
68256;SDS011;55069;51.568;4.656;2022-11-30T09:56:40;21.17;;;13.38;;
68256;SDS011;55069;51.568;4.656;2022-11-30T10:01:46;23.87;;;15.20;;
68256;SDS011;55069;51.568;4.656;2022-11-30T10:04:28;21.65;;;14.20;;
68256;SDS011;55069;51.568;4.656;2022-11-30T10:15:45;29.73;;;18.15;;
68256;SDS011;55069;51.568;4.656;2022-11-30T10:17:55;30.40;;;18.00;;
68256;SDS011;55069;51.568;4.656;2022-11-30T10:23:13;34.00;;;18.58;;
68256;SDS011;55069;51.568;4.656;2022-11-30T10:26:10;33.53;;;19.90;;
68256;SDS011;55069;51.568;4.656;2022-11-30T10:28:58;33.70;;;19.55;;
68256;SDS011;55069;51.568;4.656;2022-11-30T10:31:43;33.78;;;20.17;;
68256;SDS011;55069;51.568;4.656;2022-11-30T10:34:20;35.40;;;20.35;;
68256;SDS011;55069;51.568;4.656;2022-11-30T10:36:54;37.85;;;20.15;;
68256;SDS011;55069;51.568;4.656;2022-11-30T10:44:39;36.67;;;21.10;;
68256;SDS011;55069;51.568;4.656;2022-11-30T10:47:15;43.33;;;21.27;;
68256;SDS011;55069;51.568;4.656;2022-11-30T10:49:45;32.72;;;18.92;;
68256;SDS011;55069;51.568;4.656;2022-11-30T10:52:14;35.47;;;19.77;;
68256;SDS011;55069;51.568;4.656;2022-11-30T10:54:42;38.22;;;20.50;;
68256;SDS011;55069;51.568;4.656;2022-11-30T10:57:08;37.70;;;20.80;;
68256;SDS011;55069;51.568;4.656;2022-11-30T10:59:44;33.37;;;19.30;;
68256;SDS011;55069;51.568;4.656;2022-11-30T11:02:31;35.08;;;19.10;;
68256;SDS011;55069;51.568;4.656;2022-11-30T11:07:52;35.43;;;19.17;;
68256;SDS011;55069;51.568;4.656;2022-11-30T11:11:01;36.92;;;19.30;;
68256;SDS011;55069;51.568;4.656;2022-11-30T11:13:16;37.67;;;20.20;;
68256;SDS011;55069;51.568;4.656;2022-11-30T11:15:58;39.70;;;20.35;;
68256;SDS011;55069;51.568;4.656;2022-11-30T11:18:25;36.28;;;18.15;;
68256;SDS011;55069;51.568;4.656;2022-11-30T11:23:45;41.75;;;20.95;;
68256;SDS011;55069;51.568;4.656;2022-11-30T11:26:17;42.63;;;21.92;;
68256;SDS011;55069;51.568;4.656;2022-11-30T11:28:46;42.47;;;22.42;;
68256;SDS011;55069;51.568;4.656;2022-11-30T11:31:15;47.53;;;22.77;;
68256;SDS011;55069;51.568;4.656;2022-11-30T11:33:48;47.50;;;22.83;;
68256;SDS011;55069;51.568;4.656;2022-11-30T11:36:19;45.13;;;22.55;;
68256;SDS011;55069;51.568;4.656;2022-11-30T11:38:49;44.75;;;21.77;;
68256;SDS011;55069;51.568;4.656;2022-11-30T11:43:57;36.05;;;19.38;;
68256;SDS011;55069;51.568;4.656;2022-11-30T11:46:26;32.38;;;18.45;;
68256;SDS011;55069;51.568;4.656;2022-11-30T11:48:56;33.10;;;18.23;;
68256;SDS011;55069;51.568;4.656;2022-11-30T11:51:28;32.73;;;18.23;;
68256;SDS011;55069;51.568;4.656;2022-11-30T11:53:56;29.27;;;17.75;;
68256;SDS011;55069;51.568;4.656;2022-11-30T11:56:26;29.63;;;16.98;;
68256;SDS011;55069;51.568;4.656;2022-11-30T12:06:55;33.28;;;19.30;;
68256;SDS011;55069;51.568;4.656;2022-11-30T12:09:28;32.05;;;19.35;;
68256;SDS011;55069;51.568;4.656;2022-11-30T12:11:58;28.75;;;19.70;;
68256;SDS011;55069;51.568;4.656;2022-11-30T12:14:23;34.30;;;20.23;;
68256;SDS011;55069;51.568;4.656;2022-11-30T12:16:55;32.65;;;20.23;;
68256;SDS011;55069;51.568;4.656;2022-11-30T12:19:33;31.15;;;20.17;;
68256;SDS011;55069;51.568;4.656;2022-11-30T12:22:25;33.10;;;18.60;;
68256;SDS011;55069;51.568;4.656;2022-11-30T12:30:20;29.95;;;18.50;;
68256;SDS011;55069;51.568;4.656;2022-11-30T12:46:22;30.55;;;19.50;;
68256;SDS011;55069;51.568;4.656;2022-11-30T12:54:25;31.05;;;18.52;;
68256;SDS011;55069;51.568;4.656;2022-11-30T12:57:00;33.20;;;19.98;;
68256;SDS011;55069;51.568;4.656;2022-11-30T12:59:42;29.70;;;19.17;;
68256;SDS011;55069;51.568;4.656;2022-11-30T13:05:11;26.80;;;18.70;;
68256;SDS011;55069;51.568;4.656;2022-11-30T13:07:48;25.90;;;17.70;;
68256;SDS011;55069;51.568;4.656;2022-11-30T13:10:23;27.90;;;17.60;;
68256;SDS011;55069;51.568;4.656;2022-11-30T13:12:53;25.35;;;17.13;;
68256;SDS011;55069;51.568;4.656;2022-11-30T13:15:21;23.92;;;16.25;;
68256;SDS011;55069;51.568;4.656;2022-11-30T13:17:50;25.57;;;16.00;;
68256;SDS011;55069;51.568;4.656;2022-11-30T13:20:21;26.98;;;17.33;;
68256;SDS011;55069;51.568;4.656;2022-11-30T13:22:54;26.05;;;17.08;;
68256;SDS011;55069;51.568;4.656;2022-11-30T13:25:32;28.05;;;17.38;;
68256;SDS011;55069;51.568;4.656;2022-11-30T13:31:14;29.57;;;17.57;;
68256;SDS011;55069;51.568;4.656;2022-11-30T13:41:49;33.38;;;20.27;;
68256;SDS011;55069;51.568;4.656;2022-11-30T13:44:37;30.87;;;19.10;;
68256;SDS011;55069;51.568;4.656;2022-11-30T13:47:15;33.90;;;20.17;;
68256;SDS011;55069;51.568;4.656;2022-11-30T13:49:58;29.88;;;20.10;;
68256;SDS011;55069;51.568;4.656;2022-11-30T14:03:14;33.20;;;20.52;;
68256;SDS011;55069;51.568;4.656;2022-11-30T14:05:41;29.77;;;19.27;;
68256;SDS011;55069;51.568;4.656;2022-11-30T14:08:34;30.17;;;20.67;;
68256;SDS011;55069;51.568;4.656;2022-11-30T14:17:13;27.92;;;17.10;;
68256;SDS011;55069;51.568;4.656;2022-11-30T14:19:45;33.45;;;17.48;;
68256;SDS011;55069;51.568;4.656;2022-11-30T14:22:13;33.15;;;17.52;;
68256;SDS011;55069;51.568;4.656;2022-11-30T14:24:40;26.57;;;18.07;;
68256;SDS011;55069;51.568;4.656;2022-11-30T14:27:10;29.30;;;17.13;;
68256;SDS011;55069;51.568;4.656;2022-11-30T14:29:41;32.92;;;17.70;;
68256;SDS011;55069;51.568;4.656;2022-11-30T14:32:11;27.17;;;17.10;;
68256;SDS011;55069;51.568;4.656;2022-11-30T14:34:46;27.80;;;16.77;;
68256;SDS011;55069;51.568;4.656;2022-11-30T14:37:21;29.83;;;17.98;;
68256;SDS011;55069;51.568;4.656;2022-11-30T14:39:51;27.23;;;17.50;;
68256;SDS011;55069;51.568;4.656;2022-11-30T14:42:23;27.13;;;17.60;;
68256;SDS011;55069;51.568;4.656;2022-11-30T14:44:52;27.00;;;17.97;;
68256;SDS011;55069;51.568;4.656;2022-11-30T14:47:23;28.27;;;16.83;;
68256;SDS011;55069;51.568;4.656;2022-11-30T14:49:51;27.55;;;17.65;;
68256;SDS011;55069;51.568;4.656;2022-11-30T14:55:10;28.33;;;16.75;;
68256;SDS011;55069;51.568;4.656;2022-11-30T15:00:54;26.45;;;16.80;;
68256;SDS011;55069;51.568;4.656;2022-11-30T15:05:56;29.15;;;17.13;;
68256;SDS011;55069;51.568;4.656;2022-11-30T15:08:31;29.60;;;17.15;;
68256;SDS011;55069;51.568;4.656;2022-11-30T15:11:09;27.10;;;16.50;;
68256;SDS011;55069;51.568;4.656;2022-11-30T15:13:41;27.02;;;16.80;;
68256;SDS011;55069;51.568;4.656;2022-11-30T15:18:52;29.02;;;18.65;;
68256;SDS011;55069;51.568;4.656;2022-11-30T15:21:19;31.67;;;19.27;;
68256;SDS011;55069;51.568;4.656;2022-11-30T15:23:46;29.77;;;18.53;;
68256;SDS011;55069;51.568;4.656;2022-11-30T15:26:14;28.65;;;18.65;;
68256;SDS011;55069;51.568;4.656;2022-11-30T15:28:59;35.38;;;19.10;;
68256;SDS011;55069;51.568;4.656;2022-11-30T15:31:27;37.83;;;21.80;;
68256;SDS011;55069;51.568;4.656;2022-11-30T15:33:58;30.63;;;17.98;;
68256;SDS011;55069;51.568;4.656;2022-11-30T15:36:24;33.65;;;19.23;;
68256;SDS011;55069;51.568;4.656;2022-11-30T15:38:51;31.10;;;17.47;;
68256;SDS011;55069;51.568;4.656;2022-11-30T15:41:18;39.40;;;18.92;;
68256;SDS011;55069;51.568;4.656;2022-11-30T15:43:49;33.15;;;19.52;;
68256;SDS011;55069;51.568;4.656;2022-11-30T15:49:06;32.87;;;18.30;;
68256;SDS011;55069;51.568;4.656;2022-11-30T15:52:04;32.42;;;17.80;;
68256;SDS011;55069;51.568;4.656;2022-11-30T15:54:52;38.25;;;19.75;;
68256;SDS011;55069;51.568;4.656;2022-11-30T15:57:23;32.10;;;18.25;;
68256;SDS011;55069;51.568;4.656;2022-11-30T16:02:40;32.27;;;18.13;;
68256;SDS011;55069;51.568;4.656;2022-11-30T16:05:20;32.35;;;18.75;;
68256;SDS011;55069;51.568;4.656;2022-11-30T16:07:57;36.00;;;20.07;;
68256;SDS011;55069;51.568;4.656;2022-11-30T16:12:56;32.08;;;18.80;;
68256;SDS011;55069;51.568;4.656;2022-11-30T16:17:52;36.15;;;19.40;;
68256;SDS011;55069;51.568;4.656;2022-11-30T16:20:19;35.97;;;19.73;;
68256;SDS011;55069;51.568;4.656;2022-11-30T16:22:45;36.15;;;19.83;;
68256;SDS011;55069;51.568;4.656;2022-11-30T16:25:19;33.55;;;18.60;;
68256;SDS011;55069;51.568;4.656;2022-11-30T16:27:47;34.37;;;20.13;;
68256;SDS011;55069;51.568;4.656;2022-11-30T16:30:14;33.20;;;18.10;;
68256;SDS011;55069;51.568;4.656;2022-11-30T16:32:42;30.90;;;19.13;;
68256;SDS011;55069;51.568;4.656;2022-11-30T16:35:21;34.88;;;18.90;;
68256;SDS011;55069;51.568;4.656;2022-11-30T16:37:48;37.80;;;19.90;;